createdAt,value
2022-12-06T00:01:47.256Z,3.20
2022-12-06T00:03:54.675Z,3.30
2022-12-06T00:06:02.584Z,3.40
2022-12-06T00:08:06.349Z,3.30
2022-12-06T00:10:10.298Z,3.30
2022-12-06T00:12:13.538Z,3.20
2022-12-06T00:14:16.914Z,3.20
2022-12-06T00:16:22.214Z,3.10
2022-12-06T00:18:25.589Z,3.10
2022-12-06T00:20:28.850Z,3.10
2022-12-06T00:22:32.168Z,3.10
2022-12-06T00:24:36.481Z,3.10
2022-12-06T00:26:42.508Z,3.20
2022-12-06T00:28:46.513Z,3.20
2022-12-06T00:30:49.787Z,3.20
2022-12-06T00:32:54.512Z,3.30
2022-12-06T00:34:57.784Z,3.30
2022-12-06T00:37:01.089Z,3.20
2022-12-06T00:39:06.782Z,3.20
2022-12-06T00:41:12.733Z,3.10
2022-12-06T00:43:16.404Z,3.10
2022-12-06T00:45:19.706Z,3.00
2022-12-06T00:47:23.168Z,3.10
2022-12-06T00:49:27.833Z,3.10
2022-12-06T00:51:33.087Z,3.10
2022-12-06T00:53:36.535Z,3.10
2022-12-06T00:55:40.470Z,3.00
2022-12-06T00:57:43.867Z,3.00
2022-12-06T00:59:47.123Z,3.10
2022-12-06T01:01:50.479Z,3.10
2022-12-06T01:03:56.146Z,3.00
2022-12-06T01:06:05.320Z,2.90
2022-12-06T01:08:08.767Z,2.90
2022-12-06T01:10:13.368Z,2.80
2022-12-06T01:12:17.136Z,2.70
2022-12-06T01:14:20.430Z,2.70
2022-12-06T01:16:25.705Z,2.60
2022-12-06T01:18:28.996Z,2.50
2022-12-06T01:20:32.185Z,2.50
2022-12-06T01:22:36.845Z,2.30
2022-12-06T01:24:40.225Z,2.30
2022-12-06T01:26:43.590Z,2.40
2022-12-06T01:28:48.759Z,2.30
2022-12-06T01:30:52.095Z,2.20
2022-12-06T01:32:55.407Z,2.20
2022-12-06T01:34:58.721Z,2.10
2022-12-06T01:37:02.044Z,2.00
2022-12-06T01:39:10.754Z,2.00
2022-12-06T01:41:14.192Z,2.00
2022-12-06T01:43:38.208Z,1.90
2022-12-06T01:45:41.588Z,1.90
2022-12-06T01:47:45.887Z,2.00
2022-12-06T01:49:53.362Z,2.00
2022-12-06T01:52:00.191Z,1.90
2022-12-06T01:54:09.126Z,1.80
2022-12-06T01:56:13.093Z,1.70
2022-12-06T01:58:20.300Z,1.60
2022-12-06T02:00:23.700Z,1.60
2022-12-06T02:02:27.344Z,1.50
2022-12-06T02:04:31.971Z,1.40
2022-12-06T02:06:35.579Z,1.40
2022-12-06T02:08:39.967Z,1.50
2022-12-06T02:10:44.615Z,1.40
2022-12-06T02:12:49.996Z,1.30
2022-12-06T02:14:55.521Z,1.20
2022-12-06T02:17:15.392Z,1.10
2022-12-06T02:19:48.382Z,1.10
2022-12-06T02:22:01.653Z,1.10
2022-12-06T02:24:36.373Z,1.10
2022-12-06T02:26:44.448Z,1.20
2022-12-06T02:29:18.083Z,1.10
2022-12-06T02:31:28.952Z,1.00
2022-12-06T02:33:36.744Z,0.90
2022-12-06T02:35:45.359Z,0.90
2022-12-06T02:37:54.529Z,0.90
2022-12-06T02:40:03.101Z,0.90
2022-12-06T02:42:12.438Z,0.80
2022-12-06T02:44:22.216Z,0.90
2022-12-06T02:46:31.013Z,0.90
2022-12-06T02:48:36.078Z,0.90
2022-12-06T02:50:43.585Z,0.90
2022-12-06T02:52:50.925Z,0.90
2022-12-06T02:54:57.976Z,0.90
2022-12-06T02:57:01.203Z,0.90
2022-12-06T02:59:05.685Z,0.90
2022-12-06T03:01:14.143Z,1.00
2022-12-06T03:04:00.894Z,1.00
2022-12-06T03:06:33.654Z,1.10
2022-12-06T03:08:44.033Z,1.10
2022-12-06T03:10:54.570Z,1.10
2022-12-06T03:13:05.608Z,1.20
2022-12-06T03:15:14.991Z,1.30
2022-12-06T03:17:25.071Z,1.30
2022-12-06T03:19:31.846Z,1.30
2022-12-06T03:21:39.876Z,1.30
2022-12-06T03:23:46.479Z,1.20
2022-12-06T03:25:51.126Z,1.30
2022-12-06T03:27:56.345Z,1.30
2022-12-06T03:30:04.045Z,1.40
2022-12-06T03:32:09.160Z,1.50
2022-12-06T03:34:16.445Z,1.50
2022-12-06T03:36:22.558Z,1.50
2022-12-06T03:38:30.807Z,1.50
2022-12-06T03:40:38.151Z,1.50
2022-12-06T03:42:41.644Z,1.50
2022-12-06T03:44:45.079Z,1.40
2022-12-06T03:46:51.769Z,1.40
2022-12-06T03:49:02.525Z,1.40
2022-12-06T03:51:09.183Z,1.40
2022-12-06T03:53:14.039Z,1.30
2022-12-06T03:55:17.296Z,1.40
2022-12-06T03:57:20.689Z,1.40
2022-12-06T03:59:24.080Z,1.40
2022-12-06T04:01:27.408Z,1.40
2022-12-06T04:03:30.721Z,1.40
2022-12-06T04:05:34.152Z,1.40
2022-12-06T04:07:37.480Z,1.50
2022-12-06T04:09:56.641Z,1.50
2022-12-06T04:11:59.866Z,1.60
2022-12-06T04:14:03.078Z,1.60
2022-12-06T04:16:28.280Z,1.60
2022-12-06T04:18:30.570Z,1.60
2022-12-06T04:20:54.835Z,1.60
2022-12-06T04:23:06.460Z,1.60
2022-12-06T04:25:11.775Z,1.70
2022-12-06T04:27:32.182Z,1.70
2022-12-06T04:29:53.067Z,1.70
2022-12-06T04:32:13.437Z,1.70
2022-12-06T04:34:34.771Z,1.70
2022-12-06T04:36:56.067Z,1.70
2022-12-06T04:38:59.256Z,1.70
2022-12-06T04:41:06.732Z,1.70
2022-12-06T04:43:27.434Z,1.60
2022-12-06T04:45:30.723Z,1.60
2022-12-06T04:47:34.161Z,1.60
2022-12-06T04:49:38.779Z,1.60
2022-12-06T04:51:42.133Z,1.50
2022-12-06T04:53:46.255Z,1.60
2022-12-06T04:55:49.737Z,1.60
2022-12-06T04:57:54.401Z,1.60
2022-12-06T04:59:58.076Z,1.60
2022-12-06T05:02:01.719Z,1.60
2022-12-06T05:04:05.463Z,1.60
2022-12-06T05:06:09.463Z,1.70
2022-12-06T05:08:13.238Z,1.60
2022-12-06T05:10:16.756Z,1.60
2022-12-06T05:12:20.049Z,1.70
2022-12-06T05:14:25.287Z,1.70
2022-12-06T05:16:29.126Z,1.80
2022-12-06T05:18:33.802Z,1.70
2022-12-06T05:20:37.123Z,1.70
2022-12-06T05:22:40.387Z,1.70
2022-12-06T05:24:43.677Z,1.70
2022-12-06T05:26:46.970Z,1.70
2022-12-06T05:28:50.530Z,1.70
2022-12-06T05:30:55.437Z,1.70
2022-12-06T05:32:58.679Z,1.60
2022-12-06T05:35:01.968Z,1.70
2022-12-06T05:37:05.207Z,1.60
2022-12-06T05:39:09.011Z,1.50
2022-12-06T05:41:15.402Z,1.50
2022-12-06T05:43:18.723Z,1.40
2022-12-06T05:45:22.004Z,1.30
2022-12-06T05:47:26.875Z,1.20
2022-12-06T05:49:30.182Z,1.10
2022-12-06T05:51:33.502Z,1.10
2022-12-06T05:53:37.107Z,0.90
2022-12-06T05:55:40.443Z,0.80
2022-12-06T05:57:47.234Z,0.80
2022-12-06T05:59:50.768Z,0.70
2022-12-06T06:01:54.093Z,0.70
2022-12-06T06:03:59.134Z,0.60
2022-12-06T06:06:03.276Z,0.50
2022-12-06T06:08:07.088Z,0.50
2022-12-06T06:10:10.926Z,0.40
2022-12-06T06:12:14.386Z,0.30
2022-12-06T06:14:17.789Z,0.30
2022-12-06T06:16:21.055Z,0.30
2022-12-06T06:18:24.707Z,0.20
2022-12-06T06:20:29.547Z,0.20
2022-12-06T06:22:33.486Z,0.10
2022-12-06T06:24:37.724Z,0.10
2022-12-06T06:26:40.987Z,0.10
2022-12-06T06:28:44.614Z,0.10
2022-12-06T06:30:48.150Z,0.10
2022-12-06T06:32:51.391Z,0.00
2022-12-06T06:34:54.787Z,0.00
2022-12-06T06:36:59.454Z,0.10
2022-12-06T06:39:02.823Z,0.10
2022-12-06T06:41:08.655Z,0.20
2022-12-06T06:43:21.194Z,0.30
2022-12-06T06:45:28.618Z,0.40
2022-12-06T06:47:32.328Z,0.50
2022-12-06T06:49:35.539Z,0.60
2022-12-06T06:51:38.754Z,0.60
2022-12-06T06:53:43.476Z,0.70
2022-12-06T06:55:47.480Z,0.70
2022-12-06T06:57:50.705Z,0.70
2022-12-06T06:59:53.911Z,0.80
2022-12-06T07:01:57.342Z,0.80
2022-12-06T07:04:00.824Z,0.90
2022-12-06T07:06:05.810Z,1.00
2022-12-06T07:08:09.089Z,1.00
2022-12-06T07:10:14.747Z,1.00
2022-12-06T07:12:18.447Z,1.10
2022-12-06T07:14:21.662Z,1.20
2022-12-06T07:16:25.230Z,1.20
2022-12-06T07:18:28.679Z,1.30
2022-12-06T07:20:32.222Z,1.40
2022-12-06T07:22:35.544Z,1.40
2022-12-06T07:24:42.323Z,1.50
2022-12-06T07:26:49.724Z,1.60
2022-12-06T07:28:53.293Z,1.80
2022-12-06T07:30:56.730Z,1.90
2022-12-06T07:33:00.278Z,1.90
2022-12-06T07:35:04.507Z,2.00
2022-12-06T07:37:08.169Z,2.20
2022-12-06T07:39:14.701Z,2.20
2022-12-06T07:41:37.086Z,2.30
2022-12-06T07:43:59.156Z,2.40
2022-12-06T07:46:02.641Z,2.60
2022-12-06T07:48:07.169Z,2.70
2022-12-06T07:50:17.612Z,2.80
2022-12-06T07:52:22.197Z,3.00
2022-12-06T07:54:26.128Z,3.00
2022-12-06T07:56:29.586Z,2.90
2022-12-06T07:58:32.940Z,3.00
2022-12-06T08:00:38.421Z,3.10
2022-12-06T08:02:41.967Z,3.30
2022-12-06T08:04:45.458Z,3.50
2022-12-06T08:06:48.941Z,3.70
2022-12-06T08:08:52.364Z,3.70
2022-12-06T08:10:55.931Z,3.90
2022-12-06T08:12:59.191Z,4.00
2022-12-06T08:15:02.718Z,4.10
2022-12-06T08:17:08.081Z,4.20
2022-12-06T08:19:11.386Z,4.20
2022-12-06T08:21:16.270Z,4.00
2022-12-06T08:23:19.623Z,4.10
2022-12-06T08:25:23.512Z,4.30
2022-12-06T08:27:27.184Z,4.50
2022-12-06T08:29:30.419Z,4.80
2022-12-06T08:31:34.719Z,5.20
2022-12-06T08:33:39.656Z,5.40
2022-12-06T08:35:42.847Z,5.70
2022-12-06T08:37:46.178Z,5.80
2022-12-06T08:39:49.603Z,6.10
2022-12-06T08:41:59.552Z,6.90
2022-12-06T08:44:03.996Z,7.00
2022-12-06T08:46:07.597Z,8.40
2022-12-06T08:48:10.880Z,9.60
2022-12-06T08:50:15.604Z,10.50
2022-12-06T08:52:19.664Z,12.00
2022-12-06T08:54:24.748Z,13.00
2022-12-06T08:56:29.133Z,13.60
2022-12-06T08:58:32.422Z,13.70
2022-12-06T09:02:40.362Z,14.40
2022-12-06T09:04:43.726Z,15.60
2022-12-06T09:06:48.669Z,16.10
2022-12-06T09:08:52.359Z,16.20
2022-12-06T09:10:55.827Z,14.90
2022-12-06T09:12:59.070Z,16.60
2022-12-06T09:15:02.293Z,15.00
2022-12-06T09:17:06.535Z,16.60
2022-12-06T09:19:09.999Z,16.90
2022-12-06T09:21:18.791Z,18.00
2022-12-06T09:23:23.403Z,18.20
2022-12-06T09:25:26.688Z,17.50
2022-12-06T09:27:31.750Z,18.50
2022-12-06T09:29:40.779Z,18.10
2022-12-06T09:31:44.579Z,18.60
2022-12-06T09:33:48.218Z,18.50
2022-12-06T09:35:53.460Z,19.10
2022-12-06T09:37:57.208Z,18.50
2022-12-06T09:40:11.838Z,17.70
2022-12-06T09:42:34.154Z,18.40
2022-12-06T09:44:58.087Z,18.50
2022-12-06T09:47:13.489Z,19.00
2022-12-06T09:49:32.744Z,18.60
2022-12-06T09:52:01.744Z,19.10
2022-12-06T09:54:17.489Z,18.70
2022-12-06T09:56:27.927Z,19.60
2022-12-06T09:58:55.498Z,20.00
2022-12-06T10:01:08.572Z,20.00
2022-12-06T10:03:46.600Z,19.40
2022-12-06T10:06:01.132Z,19.20
2022-12-06T10:08:15.632Z,19.80
2022-12-06T10:10:23.817Z,19.50
2022-12-06T10:12:40.341Z,17.90
2022-12-06T10:15:14.385Z,19.00
2022-12-06T10:17:28.809Z,17.00
2022-12-06T10:19:49.570Z,17.00
2022-12-06T10:22:03.625Z,17.80
2022-12-06T10:24:19.501Z,18.00
2022-12-06T10:26:34.084Z,17.80
2022-12-06T10:28:45.529Z,17.70
2022-12-06T10:30:53.763Z,17.40
2022-12-06T10:33:05.652Z,17.60
2022-12-06T10:35:18.961Z,16.60
2022-12-06T10:37:34.441Z,15.60
2022-12-06T10:39:51.829Z,14.10
2022-12-06T10:42:03.271Z,13.30
2022-12-06T10:44:16.103Z,12.80
2022-12-06T10:46:43.202Z,12.40
2022-12-06T10:48:57.095Z,12.70
2022-12-06T10:51:06.297Z,12.50
2022-12-06T10:53:13.992Z,12.50
2022-12-06T10:55:25.884Z,13.00
2022-12-06T10:57:36.670Z,12.90
2022-12-06T10:59:45.304Z,12.60
2022-12-06T11:01:50.293Z,12.50
2022-12-06T11:04:01.336Z,11.50
2022-12-06T11:06:11.221Z,10.40
2022-12-06T11:08:18.081Z,11.00
2022-12-06T11:10:25.889Z,10.90
2022-12-06T11:12:33.823Z,10.60
2022-12-06T11:14:43.225Z,10.10
2022-12-06T11:16:51.747Z,10.10
2022-12-06T11:18:58.612Z,10.30
2022-12-06T11:21:07.538Z,10.40
2022-12-06T11:23:17.991Z,10.10
2022-12-06T11:25:28.782Z,10.10
2022-12-06T11:27:35.834Z,10.00
2022-12-06T11:29:39.154Z,9.90
2022-12-06T11:31:47.344Z,9.90
2022-12-06T11:33:51.026Z,10.10
2022-12-06T11:35:54.381Z,9.90
2022-12-06T11:38:01.491Z,10.50
2022-12-06T11:40:10.372Z,10.30
2022-12-06T11:42:16.271Z,9.60
2022-12-06T11:44:25.552Z,9.40
2022-12-06T11:46:30.124Z,8.80
2022-12-06T11:48:36.817Z,8.80
2022-12-06T11:50:40.234Z,8.70
2022-12-06T11:52:48.753Z,8.60
2022-12-06T11:54:58.082Z,8.80
2022-12-06T11:57:12.218Z,9.00
2022-12-06T11:59:24.891Z,9.30
2022-12-06T12:01:40.171Z,9.20
2022-12-06T12:03:47.439Z,9.30
2022-12-06T12:05:50.880Z,9.80
2022-12-06T12:07:59.582Z,9.70
2022-12-06T12:10:12.867Z,9.50
2022-12-06T12:12:18.650Z,9.10
2022-12-06T12:14:28.001Z,8.90
2022-12-06T12:16:37.359Z,8.70
2022-12-06T12:18:51.738Z,8.50
2022-12-06T12:20:56.280Z,8.40
2022-12-06T12:23:04.110Z,8.70
2022-12-06T12:25:24.823Z,8.80
2022-12-06T12:27:46.906Z,8.30
2022-12-06T12:30:11.633Z,8.90
2022-12-06T12:32:19.908Z,9.00
2022-12-06T12:34:26.970Z,9.40
2022-12-06T12:36:30.963Z,10.10
2022-12-06T12:38:42.025Z,10.90
2022-12-06T12:40:48.585Z,11.40
2022-12-06T12:42:59.991Z,11.00
2022-12-06T12:45:06.043Z,11.50
2022-12-06T12:47:19.930Z,11.90
2022-12-06T12:49:30.994Z,12.30
2022-12-06T12:51:36.229Z,12.80
2022-12-06T12:53:44.899Z,13.90
2022-12-06T12:55:48.690Z,14.60
2022-12-06T12:57:53.753Z,14.90
2022-12-06T12:59:57.586Z,14.20
2022-12-06T13:02:14.466Z,14.30
2022-12-06T13:04:41.347Z,14.20
2022-12-06T13:06:51.077Z,13.70
2022-12-06T13:08:57.376Z,12.80
2022-12-06T13:11:03.286Z,12.60
2022-12-06T13:13:21.817Z,12.40
2022-12-06T13:15:31.578Z,11.60
2022-12-06T13:17:38.087Z,11.10
2022-12-06T13:19:53.222Z,10.50
2022-12-06T13:21:58.745Z,10.20
2022-12-06T13:24:08.999Z,9.70
2022-12-06T13:26:21.134Z,9.00
2022-12-06T13:28:29.248Z,8.60
2022-12-06T13:30:35.335Z,8.70
2022-12-06T13:32:43.139Z,8.70
2022-12-06T13:34:55.493Z,8.10
2022-12-06T13:37:00.362Z,7.80
2022-12-06T13:39:36.483Z,7.60
2022-12-06T13:42:13.013Z,7.30
2022-12-06T13:44:44.710Z,7.00
2022-12-06T13:46:47.969Z,6.90
2022-12-06T13:48:52.851Z,6.70
2022-12-06T13:50:58.138Z,6.50
2022-12-06T13:53:03.615Z,6.20
2022-12-06T13:55:57.531Z,6.30
2022-12-06T13:58:35.603Z,6.20
2022-12-06T14:00:52.051Z,6.90
2022-12-06T14:02:56.095Z,6.50
2022-12-06T14:04:59.948Z,6.20
2022-12-06T14:07:04.962Z,5.90
2022-12-06T14:09:11.574Z,5.60
2022-12-06T14:11:21.723Z,5.40
2022-12-06T14:13:25.219Z,5.20
2022-12-06T14:15:28.553Z,5.10
2022-12-06T14:18:02.208Z,5.00
2022-12-06T14:20:02.616Z,4.90
2022-12-06T14:22:20.671Z,4.70
2022-12-06T14:24:31.848Z,4.50
2022-12-06T14:26:36.087Z,4.40
2022-12-06T14:28:39.451Z,4.40
2022-12-06T14:30:44.723Z,4.40
2022-12-06T14:32:50.012Z,4.30
2022-12-06T14:35:03.388Z,4.30
2022-12-06T14:37:20.098Z,4.30
2022-12-06T14:39:27.179Z,4.20
2022-12-06T14:41:52.493Z,4.20
2022-12-06T14:43:55.844Z,4.10
2022-12-06T14:46:01.530Z,4.10
2022-12-06T14:48:05.674Z,4.20
2022-12-06T14:50:27.190Z,4.30
2022-12-06T14:52:36.311Z,4.20
2022-12-06T14:54:44.156Z,4.20
2022-12-06T14:56:49.246Z,4.10
2022-12-06T14:58:53.183Z,4.10
2022-12-06T15:01:01.067Z,4.10
2022-12-06T15:03:24.060Z,4.00
2022-12-06T15:05:39.679Z,4.00
2022-12-06T15:07:44.096Z,3.90
2022-12-06T15:09:47.793Z,3.80
2022-12-06T15:12:09.967Z,3.80
2022-12-06T15:14:16.003Z,3.80
2022-12-06T15:16:19.304Z,3.60
2022-12-06T15:18:25.585Z,3.60
2022-12-06T15:20:28.817Z,3.50
2022-12-06T15:22:32.487Z,3.50
2022-12-06T15:24:35.759Z,3.50
2022-12-06T15:26:38.939Z,3.50
2022-12-06T15:28:46.615Z,3.40
2022-12-06T15:30:49.850Z,3.30
2022-12-06T15:32:53.059Z,3.40
2022-12-06T15:34:57.008Z,3.50
2022-12-06T15:37:37.090Z,3.50
2022-12-06T15:39:25.044Z,3.40
2022-12-06T15:41:29.425Z,3.20
2022-12-06T15:43:37.363Z,3.30
2022-12-06T15:45:42.194Z,3.30
2022-12-06T15:47:45.839Z,3.40
2022-12-06T15:49:51.982Z,3.30
2022-12-06T15:51:55.539Z,3.20
2022-12-06T15:54:00.298Z,3.20
2022-12-06T15:56:07.748Z,3.20
2022-12-06T15:58:11.346Z,3.20
2022-12-06T16:00:15.410Z,3.20
2022-12-06T16:02:20.677Z,3.10
2022-12-06T16:04:30.140Z,3.10
2022-12-06T16:06:33.718Z,3.10
2022-12-06T16:08:36.907Z,3.00
2022-12-06T16:11:10.392Z,3.10
2022-12-06T16:13:21.274Z,3.00
2022-12-06T16:15:24.659Z,3.00
2022-12-06T16:17:29.280Z,2.90
2022-12-06T16:19:46.607Z,2.90
2022-12-06T16:21:54.424Z,2.90
2022-12-06T16:24:13.920Z,3.00
2022-12-06T16:26:18.711Z,3.00
2022-12-06T16:28:22.004Z,2.90
2022-12-06T16:30:32.957Z,2.90
2022-12-06T16:32:37.678Z,2.90
2022-12-06T16:34:40.968Z,2.90
2022-12-06T16:36:59.726Z,2.90
2022-12-06T16:39:06.880Z,2.80
2022-12-06T16:41:20.964Z,2.80
2022-12-06T16:43:24.306Z,2.80
2022-12-06T16:45:27.636Z,2.80
2022-12-06T16:49:50.080Z,2.70
2022-12-06T16:51:53.885Z,2.70
2022-12-06T16:53:59.996Z,2.70
2022-12-06T16:56:03.695Z,2.60
2022-12-06T16:58:07.537Z,2.50
2022-12-06T17:00:14.022Z,2.50
2022-12-06T17:02:29.506Z,2.50
2022-12-06T17:04:34.205Z,2.50
2022-12-06T17:06:38.154Z,2.40
2022-12-06T17:08:41.397Z,2.50
2022-12-06T17:10:44.736Z,2.50
2022-12-06T17:12:49.412Z,2.50
2022-12-06T17:14:52.749Z,2.50
2022-12-06T17:16:57.379Z,2.40
2022-12-06T17:19:00.731Z,2.40
2022-12-06T17:21:13.095Z,2.30
2022-12-06T17:23:18.913Z,2.30
2022-12-06T17:25:22.160Z,2.30
2022-12-06T17:27:25.597Z,2.30
2022-12-06T17:29:29.499Z,2.30
2022-12-06T17:31:33.319Z,2.30
2022-12-06T17:33:36.623Z,2.30
2022-12-06T17:35:39.788Z,2.20
2022-12-06T17:37:44.581Z,2.20
2022-12-06T17:39:49.275Z,2.20
2022-12-06T17:42:09.703Z,2.20
2022-12-06T17:44:13.727Z,2.20
2022-12-06T17:46:17.022Z,2.20
2022-12-06T17:48:20.565Z,2.20
2022-12-06T17:50:23.860Z,2.20
2022-12-06T17:52:27.084Z,2.20
2022-12-06T17:54:32.017Z,2.30
2022-12-06T17:56:36.883Z,2.20
2022-12-06T17:58:40.344Z,2.20
2022-12-06T18:00:43.725Z,2.00
2022-12-06T18:02:48.766Z,2.00
2022-12-06T18:04:52.701Z,2.10
2022-12-06T18:06:56.632Z,2.10
2022-12-06T18:09:00.913Z,2.10
2022-12-06T18:11:07.574Z,2.00
2022-12-06T18:13:10.870Z,2.00
2022-12-06T18:15:27.934Z,2.00
2022-12-06T18:17:31.163Z,2.00
2022-12-06T18:19:34.800Z,1.90
2022-12-06T18:21:39.725Z,1.90
2022-12-06T18:24:12.832Z,1.90
2022-12-06T18:26:13.114Z,1.90
2022-12-06T18:28:16.577Z,1.80
2022-12-06T18:30:20.028Z,1.80
2022-12-06T18:32:23.337Z,1.80
2022-12-06T18:34:26.975Z,1.80
2022-12-06T18:36:31.455Z,1.80
2022-12-06T18:38:35.409Z,1.80
2022-12-06T18:40:39.037Z,1.70
2022-12-06T18:42:43.821Z,1.70
2022-12-06T18:44:48.031Z,1.80
2022-12-06T18:46:51.424Z,1.80
2022-12-06T18:48:58.034Z,1.70
2022-12-06T18:51:01.236Z,1.70
2022-12-06T18:53:04.465Z,1.60
2022-12-06T18:55:09.057Z,1.60
2022-12-06T18:57:12.388Z,1.70
2022-12-06T18:59:17.243Z,1.60
2022-12-06T19:01:22.559Z,1.60
2022-12-06T19:03:26.034Z,1.60
2022-12-06T19:06:00.689Z,1.60
2022-12-06T19:07:53.273Z,1.70
2022-12-06T19:09:57.158Z,1.70
2022-12-06T19:12:00.451Z,1.80
2022-12-06T19:14:03.627Z,1.80
2022-12-06T19:16:09.079Z,1.70
2022-12-06T19:18:13.681Z,1.70
2022-12-06T19:20:17.188Z,1.70
2022-12-06T19:22:20.443Z,1.70
2022-12-06T19:24:25.882Z,1.70
2022-12-06T19:26:30.152Z,1.70
2022-12-06T19:28:34.648Z,1.60
2022-12-06T19:30:37.917Z,1.60
2022-12-06T19:32:42.720Z,1.60
2022-12-06T19:34:46.778Z,1.60
2022-12-06T19:36:51.544Z,1.60
2022-12-06T19:38:59.086Z,1.60
2022-12-06T19:41:04.650Z,1.60
2022-12-06T19:43:25.210Z,1.60
2022-12-06T19:45:28.567Z,1.60
2022-12-06T19:47:32.152Z,1.60
2022-12-06T19:49:37.181Z,1.60
2022-12-06T19:51:42.060Z,1.60
2022-12-06T19:53:45.757Z,1.50
2022-12-06T19:55:49.023Z,1.50
2022-12-06T19:57:52.251Z,1.50
2022-12-06T19:59:56.501Z,1.50
2022-12-06T20:02:00.166Z,1.50
2022-12-06T20:04:03.611Z,1.50
2022-12-06T20:06:12.884Z,1.50
2022-12-06T20:08:19.910Z,1.50
2022-12-06T20:10:23.291Z,1.50
2022-12-06T20:12:26.792Z,1.40
2022-12-06T20:14:31.313Z,1.40
2022-12-06T20:16:34.827Z,1.40
2022-12-06T20:18:38.343Z,1.40
2022-12-06T20:20:41.845Z,1.40
2022-12-06T20:22:46.718Z,1.40
2022-12-06T20:24:50.321Z,1.40
2022-12-06T20:26:55.491Z,1.40
2022-12-06T20:28:59.863Z,1.40
2022-12-06T20:31:11.320Z,1.50
2022-12-06T20:33:14.697Z,1.50
2022-12-06T20:35:18.302Z,1.60
2022-12-06T20:37:21.545Z,1.60
2022-12-06T20:39:28.794Z,1.60
2022-12-06T20:41:33.256Z,1.60
2022-12-06T20:43:36.747Z,1.50
2022-12-06T20:45:40.114Z,1.50
2022-12-06T20:47:43.500Z,1.50
2022-12-06T20:49:46.900Z,1.50
2022-12-06T20:51:53.372Z,1.50
2022-12-06T20:53:58.825Z,1.40
2022-12-06T20:56:05.528Z,1.40
2022-12-06T20:58:08.866Z,1.40
2022-12-06T21:00:13.479Z,1.40
2022-12-06T21:02:17.016Z,1.40
2022-12-06T21:04:20.320Z,1.40
2022-12-06T21:06:25.049Z,1.30
2022-12-06T21:08:28.397Z,1.20
2022-12-06T21:10:31.756Z,1.30
2022-12-06T21:12:36.680Z,1.20
2022-12-06T21:14:39.995Z,1.20
2022-12-06T21:16:44.526Z,1.20
2022-12-06T21:18:49.346Z,1.20
2022-12-06T21:20:52.633Z,1.30
2022-12-06T21:22:55.990Z,1.20
2022-12-06T21:24:59.220Z,1.20
2022-12-06T21:27:02.546Z,1.20
2022-12-06T21:29:07.705Z,1.20
2022-12-06T21:31:11.023Z,1.20
2022-12-06T21:33:14.533Z,1.10
2022-12-06T21:35:18.088Z,1.10
2022-12-06T21:37:21.579Z,1.10
2022-12-06T21:39:24.828Z,1.10
2022-12-06T21:41:28.223Z,1.20
2022-12-06T21:43:31.462Z,1.10
2022-12-06T21:45:37.412Z,1.10
2022-12-06T21:47:40.765Z,1.10
2022-12-06T21:49:44.259Z,1.10
2022-12-06T21:51:47.577Z,1.10
2022-12-06T21:53:51.051Z,1.10
2022-12-06T21:55:54.399Z,1.10
2022-12-06T21:57:57.664Z,1.00
2022-12-06T22:00:01.154Z,1.00
2022-12-06T22:02:06.228Z,1.00
2022-12-06T22:04:09.521Z,1.00
2022-12-06T22:06:14.656Z,1.00
2022-12-06T22:08:18.001Z,1.00
2022-12-06T22:10:21.543Z,1.00
2022-12-06T22:12:25.021Z,1.00
2022-12-06T22:14:28.450Z,0.90
2022-12-06T22:16:32.214Z,1.00
2022-12-06T22:18:44.447Z,1.00
2022-12-06T22:20:59.027Z,1.00
2022-12-06T22:23:02.294Z,1.00
2022-12-06T22:25:06.120Z,1.00
2022-12-06T22:27:09.451Z,0.90
2022-12-06T22:29:12.855Z,0.90
2022-12-06T22:31:18.181Z,1.00
2022-12-06T22:33:21.507Z,1.00
2022-12-06T22:35:27.405Z,0.90
2022-12-06T22:37:30.619Z,1.00
2022-12-06T22:39:34.055Z,1.00
2022-12-06T22:41:37.349Z,0.90
2022-12-06T22:43:40.635Z,0.90
2022-12-06T22:45:43.921Z,0.90
2022-12-06T22:47:47.835Z,1.00
2022-12-06T22:49:51.324Z,0.90
2022-12-06T22:51:55.947Z,0.90
2022-12-06T22:54:01.101Z,0.90
2022-12-06T22:56:04.679Z,0.90
2022-12-06T22:58:07.988Z,0.90
2022-12-06T23:00:12.028Z,0.90
2022-12-06T23:02:15.264Z,0.90
2022-12-06T23:04:18.710Z,0.90
2022-12-06T23:06:24.599Z,0.90
2022-12-06T23:08:29.493Z,0.90
2022-12-06T23:10:32.798Z,0.90
2022-12-06T23:12:37.574Z,0.90
2022-12-06T23:14:40.834Z,0.80
2022-12-06T23:16:45.529Z,0.80
2022-12-06T23:18:49.622Z,0.80
2022-12-06T23:21:02.637Z,0.70
2022-12-06T23:23:06.060Z,0.70
2022-12-06T23:25:10.972Z,0.60
2022-12-06T23:27:14.203Z,0.60
2022-12-06T23:29:17.896Z,0.50
2022-12-06T23:31:23.423Z,0.50
2022-12-06T23:33:26.718Z,0.50
2022-12-06T23:35:30.006Z,0.50
2022-12-06T23:37:33.215Z,0.40
2022-12-06T23:39:36.794Z,0.40
2022-12-06T23:41:41.824Z,0.40
2022-12-06T23:43:45.316Z,0.30
2022-12-06T23:45:59.162Z,0.30
2022-12-06T23:48:03.334Z,0.30
2022-12-06T23:50:07.887Z,0.20
2022-12-06T23:52:11.354Z,0.20
2022-12-06T23:54:15.903Z,0.20
2022-12-06T23:56:21.139Z,0.10
2022-12-06T23:58:25.854Z,0.10
